sensor_id;sensor_type;location;lat;lon;timestamp;pressure;altitude;pressure_sealevel;temperature;humidity
39555;BME280;25231;48.746;9.234;2023-04-03T00:01:02;97425.56;;;2.43;100.00
39555;BME280;25231;48.746;9.234;2023-04-03T00:03:28;97426.84;;;2.39;100.00
39555;BME280;25231;48.746;9.234;2023-04-03T00:05:53;97430.38;;;2.30;100.00
39555;BME280;25231;48.746;9.234;2023-04-03T00:08:19;97429.56;;;2.22;100.00
39555;BME280;25231;48.746;9.234;2023-04-03T00:10:45;97423.41;;;2.23;100.00
39555;BME280;25231;48.746;9.234;2023-04-03T00:13:10;97421.78;;;2.30;100.00
39555;BME280;25231;48.746;9.234;2023-04-03T00:15:37;97425.50;;;2.19;100.00
39555;BME280;25231;48.746;9.234;2023-04-03T00:18:03;97421.31;;;2.26;100.00
39555;BME280;25231;48.746;9.234;2023-04-03T00:20:28;97425.00;;;2.24;100.00
39555;BME280;25231;48.746;9.234;2023-04-03T00:22:54;97424.88;;;2.25;100.00
39555;BME280;25231;48.746;9.234;2023-04-03T00:25:20;97432.66;;;2.33;100.00
39555;BME280;25231;48.746;9.234;2023-04-03T00:27:46;97427.31;;;2.43;100.00
39555;BME280;25231;48.746;9.234;2023-04-03T00:30:15;97430.69;;;2.35;100.00
39555;BME280;25231;48.746;9.234;2023-04-03T00:32:40;97429.22;;;2.25;100.00
39555;BME280;25231;48.746;9.234;2023-04-03T00:35:06;97429.88;;;2.35;100.00
39555;BME280;25231;48.746;9.234;2023-04-03T00:37:31;97423.59;;;2.37;100.00
39555;BME280;25231;48.746;9.234;2023-04-03T00:39:57;97422.63;;;2.38;100.00
39555;BME280;25231;48.746;9.234;2023-04-03T00:42:23;97426.00;;;2.31;100.00
39555;BME280;25231;48.746;9.234;2023-04-03T00:47:16;97425.00;;;2.24;100.00
39555;BME280;25231;48.746;9.234;2023-04-03T00:49:43;97422.56;;;2.14;100.00
39555;BME280;25231;48.746;9.234;2023-04-03T00:52:11;97432.09;;;2.14;100.00
39555;BME280;25231;48.746;9.234;2023-04-03T00:54:40;97427.09;;;2.12;100.00
39555;BME280;25231;48.746;9.234;2023-04-03T00:57:08;97421.47;;;2.17;100.00
39555;BME280;25231;48.746;9.234;2023-04-03T00:59:37;97422.75;;;2.21;100.00
39555;BME280;25231;48.746;9.234;2023-04-03T01:02:04;97423.75;;;2.28;100.00
39555;BME280;25231;48.746;9.234;2023-04-03T01:04:40;97422.75;;;2.29;100.00
39555;BME280;25231;48.746;9.234;2023-04-03T01:07:09;97419.69;;;2.17;100.00
39555;BME280;25231;48.746;9.234;2023-04-03T01:09:36;97423.75;;;2.28;100.00
39555;BME280;25231;48.746;9.234;2023-04-03T01:12:29;97429.06;;;2.34;100.00
39555;BME280;25231;48.746;9.234;2023-04-03T01:14:57;97423.75;;;2.36;100.00
39555;BME280;25231;48.746;9.234;2023-04-03T01:17:37;97412.72;;;2.09;100.00
39555;BME280;25231;48.746;9.234;2023-04-03T01:25:31;97417.91;;;2.26;100.00
39555;BME280;25231;48.746;9.234;2023-04-03T01:27:56;97419.69;;;2.25;100.00
39555;BME280;25231;48.746;9.234;2023-04-03T01:30:26;97422.94;;;2.27;100.00
39555;BME280;25231;48.746;9.234;2023-04-03T01:32:55;97420.66;;;2.24;100.00
39555;BME280;25231;48.746;9.234;2023-04-03T01:35:21;97423.38;;;2.15;100.00
39555;BME280;25231;48.746;9.234;2023-04-03T01:37:46;97417.59;;;2.21;100.00
39555;BME280;25231;48.746;9.234;2023-04-03T01:40:11;97421.28;;;2.18;100.00
39555;BME280;25231;48.746;9.234;2023-04-03T01:42:36;97419.19;;;2.14;100.00
39555;BME280;25231;48.746;9.234;2023-04-03T01:45:02;97422.91;;;2.11;100.00
39555;BME280;25231;48.746;9.234;2023-04-03T01:47:28;97421.94;;;2.20;100.00
39555;BME280;25231;48.746;9.234;2023-04-03T01:49:53;97424.88;;;2.25;100.00
39555;BME280;25231;48.746;9.234;2023-04-03T01:52:18;97415.31;;;2.18;100.00
39555;BME280;25231;48.746;9.234;2023-04-03T01:54:43;97421.47;;;2.25;100.00
39555;BME280;25231;48.746;9.234;2023-04-03T01:57:09;97424.19;;;2.23;100.00
39555;BME280;25231;48.746;9.234;2023-04-03T01:59:35;97423.38;;;2.15;100.00
39555;BME280;25231;48.746;9.234;2023-04-03T02:02:00;97424.38;;;2.22;100.00
39555;BME280;25231;48.746;9.234;2023-04-03T02:04:25;97425.81;;;2.16;100.00
39555;BME280;25231;48.746;9.234;2023-04-03T02:06:51;97424.88;;;2.25;100.00
39555;BME280;25231;48.746;9.234;2023-04-03T02:09:16;97424.50;;;2.12;100.00
39555;BME280;25231;48.746;9.234;2023-04-03T02:11:41;97429.38;;;2.23;100.00
39555;BME280;25231;48.746;9.234;2023-04-03T02:14:07;97423.41;;;2.23;100.00
39555;BME280;25231;48.746;9.234;2023-04-03T02:16:32;97430.72;;;2.51;100.00
39555;BME280;25231;48.746;9.234;2023-04-03T02:18:58;97424.09;;;2.33;100.00
39555;BME280;25231;48.746;9.234;2023-04-03T02:21:23;97427.94;;;2.29;100.00
39555;BME280;25231;48.746;9.234;2023-04-03T02:23:49;97434.94;;;2.44;100.00
39555;BME280;25231;48.746;9.234;2023-04-03T02:26:15;97430.88;;;2.42;99.16
39555;BME280;25231;48.746;9.234;2023-04-03T02:28:41;97434.31;;;2.50;97.20
39555;BME280;25231;48.746;9.234;2023-04-03T02:31:08;97438.47;;;2.51;98.05
39555;BME280;25231;48.746;9.234;2023-04-03T02:33:34;97433.75;;;2.31;97.67
39555;BME280;25231;48.746;9.234;2023-04-03T02:36:02;97433.59;;;2.24;97.93
39555;BME280;25231;48.746;9.234;2023-04-03T02:38:27;97432.81;;;2.40;98.05
39555;BME280;25231;48.746;9.234;2023-04-03T02:40:52;97432.81;;;2.40;96.93
39555;BME280;25231;48.746;9.234;2023-04-03T02:43:18;97430.41;;;2.38;96.82
39555;BME280;25231;48.746;9.234;2023-04-03T02:45:43;97428.38;;;2.08;95.53
39555;BME280;25231;48.746;9.234;2023-04-03T02:48:09;97434.69;;;2.14;97.58
39555;BME280;25231;48.746;9.234;2023-04-03T02:50:34;97431.19;;;2.31;97.79
39555;BME280;25231;48.746;9.234;2023-04-03T02:52:59;97435.72;;;2.37;97.45
39555;BME280;25231;48.746;9.234;2023-04-03T02:55:25;97435.25;;;2.33;97.85
39555;BME280;25231;48.746;9.234;2023-04-03T02:57:51;97437.50;;;2.36;97.67
39555;BME280;25231;48.746;9.234;2023-04-03T03:00:16;97436.19;;;2.32;97.90
39555;BME280;25231;48.746;9.234;2023-04-03T03:02:42;97435.38;;;2.40;96.88
39555;BME280;25231;48.746;9.234;2023-04-03T03:05:08;97437.34;;;2.38;96.37
39555;BME280;25231;48.746;9.234;2023-04-03T03:07:33;97439.59;;;2.33;95.76
39555;BME280;25231;48.746;9.234;2023-04-03T03:09:59;97436.50;;;2.29;95.34
39555;BME280;25231;48.746;9.234;2023-04-03T03:12:24;97437.66;;;2.27;96.07
39555;BME280;25231;48.746;9.234;2023-04-03T03:14:50;97439.72;;;2.23;96.55
39555;BME280;25231;48.746;9.234;2023-04-03T03:17:15;97427.13;;;2.20;94.49
39555;BME280;25231;48.746;9.234;2023-04-03T03:19:41;97430.38;;;2.30;95.74
39555;BME280;25231;48.746;9.234;2023-04-03T03:22:06;97426.50;;;2.26;96.02
39555;BME280;25231;48.746;9.234;2023-04-03T03:24:32;97425.38;;;2.37;95.43
39555;BME280;25231;48.746;9.234;2023-04-03T03:26:57;97430.06;;;2.33;94.54
39555;BME280;25231;48.746;9.234;2023-04-03T03:29:22;97416.63;;;2.22;94.92
39555;BME280;25231;48.746;9.234;2023-04-03T03:31:48;97426.16;;;2.29;94.16
39555;BME280;25231;48.746;9.234;2023-04-03T03:34:13;97422.94;;;2.27;93.91
39555;BME280;25231;48.746;9.234;2023-04-03T03:36:39;97421.31;;;2.34;94.05
39555;BME280;25231;48.746;9.234;2023-04-03T03:39:04;97422.31;;;2.33;93.80
39555;BME280;25231;48.746;9.234;2023-04-03T03:41:30;97420.19;;;2.21;94.64
39555;BME280;25231;48.746;9.234;2023-04-03T03:43:56;97420.28;;;2.03;95.38
39555;BME280;25231;48.746;9.234;2023-04-03T03:46:21;97418.69;;;2.10;95.46
39555;BME280;25231;48.746;9.234;2023-04-03T03:48:46;97419.28;;;1.96;95.27
39555;BME280;25231;48.746;9.234;2023-04-03T03:51:12;97419.00;;;1.99;96.22
39555;BME280;25231;48.746;9.234;2023-04-03T03:53:37;97415.41;;;1.92;96.12
39555;BME280;25231;48.746;9.234;2023-04-03T03:56:03;97418.00;;;1.92;96.33
39555;BME280;25231;48.746;9.234;2023-04-03T03:58:28;97424.44;;;1.88;96.80
39555;BME280;25231;48.746;9.234;2023-04-03T04:00:54;97418.28;;;1.81;97.10
39555;BME280;25231;48.746;9.234;2023-04-03T04:03:19;97424.94;;;1.91;96.48
39555;BME280;25231;48.746;9.234;2023-04-03T04:05:45;97419.91;;;1.90;96.35
39555;BME280;25231;48.746;9.234;2023-04-03T04:08:11;97419.00;;;1.99;95.95
39555;BME280;25231;48.746;9.234;2023-04-03T04:10:37;97422.69;;;1.96;94.42
39555;BME280;25231;48.746;9.234;2023-04-03T04:13:03;97419.00;;;1.99;95.17
39555;BME280;25231;48.746;9.234;2023-04-03T04:15:28;97431.41;;;1.95;93.52
39555;BME280;25231;48.746;9.234;2023-04-03T04:17:54;97440.28;;;1.93;90.91
39555;BME280;25231;48.746;9.234;2023-04-03T04:20:20;97430.47;;;2.04;91.96
39555;BME280;25231;48.746;9.234;2023-04-03T04:22:45;97438.09;;;2.06;91.28
39555;BME280;25231;48.746;9.234;2023-04-03T04:25:10;97430.47;;;2.04;90.29
39555;BME280;25231;48.746;9.234;2023-04-03T04:27:36;97428.03;;;2.03;90.64
39555;BME280;25231;48.746;9.234;2023-04-03T04:30:02;97427.88;;;2.04;90.04
39555;BME280;25231;48.746;9.234;2023-04-03T04:32:28;97423.84;;;2.02;89.54
39555;BME280;25231;48.746;9.234;2023-04-03T04:34:53;97427.06;;;2.04;89.68
39555;BME280;25231;48.746;9.234;2023-04-03T04:37:19;97429.19;;;2.00;92.08
39555;BME280;25231;48.746;9.234;2023-04-03T04:39:44;97427.41;;;2.09;91.06
39555;BME280;25231;48.746;9.234;2023-04-03T04:42:10;97433.41;;;2.09;91.43
39555;BME280;25231;48.746;9.234;2023-04-03T04:44:38;97427.75;;;2.14;89.80
39555;BME280;25231;48.746;9.234;2023-04-03T04:47:04;97431.63;;;2.10;89.09
39555;BME280;25231;48.746;9.234;2023-04-03T04:49:29;97421.28;;;2.10;90.05
39555;BME280;25231;48.746;9.234;2023-04-03T04:51:55;97431.47;;;2.20;88.44
39555;BME280;25231;48.746;9.234;2023-04-03T04:54:20;97425.19;;;2.22;89.63
39555;BME280;25231;48.746;9.234;2023-04-03T04:56:46;97434.22;;;2.18;88.87
39555;BME280;25231;48.746;9.234;2023-04-03T04:59:12;97438.47;;;2.27;89.15
39555;BME280;25231;48.746;9.234;2023-04-03T05:01:37;97432.72;;;2.07;89.01
39555;BME280;25231;48.746;9.234;2023-04-03T05:04:02;97438.41;;;2.19;88.05
39555;BME280;25231;48.746;9.234;2023-04-03T05:06:28;97438.47;;;2.27;88.10
39555;BME280;25231;48.746;9.234;2023-04-03T05:08:55;97446.41;;;2.42;88.74
39555;BME280;25231;48.746;9.234;2023-04-03T05:11:20;97442.19;;;2.33;88.82
39555;BME280;25231;48.746;9.234;2023-04-03T05:13:46;97443.97;;;2.40;87.67
39555;BME280;25231;48.746;9.234;2023-04-03T05:16:11;97457.09;;;2.63;86.35
39555;BME280;25231;48.746;9.234;2023-04-03T05:18:36;97450.63;;;2.59;86.31
39555;BME280;25231;48.746;9.234;2023-04-03T05:21:02;97457.88;;;2.47;85.58
39555;BME280;25231;48.746;9.234;2023-04-03T05:23:27;97454.50;;;2.39;85.10
39555;BME280;25231;48.746;9.234;2023-04-03T05:25:52;97456.09;;;2.48;85.02
39555;BME280;25231;48.746;9.234;2023-04-03T05:28:18;97458.06;;;2.54;83.43
39555;BME280;25231;48.746;9.234;2023-04-03T05:30:43;97456.44;;;2.53;83.95
39555;BME280;25231;48.746;9.234;2023-04-03T05:33:09;97464.84;;;2.47;83.42
39555;BME280;25231;48.746;9.234;2023-04-03T05:35:36;97462.28;;;2.55;83.18
39555;BME280;25231;48.746;9.234;2023-04-03T05:38:04;97466.31;;;2.58;82.82
39555;BME280;25231;48.746;9.234;2023-04-03T05:40:29;97470.97;;;2.46;82.62
39555;BME280;25231;48.746;9.234;2023-04-03T05:42:55;97465.28;;;2.34;83.56
39555;BME280;25231;48.746;9.234;2023-04-03T05:45:20;97462.69;;;2.34;84.02
39555;BME280;25231;48.746;9.234;2023-04-03T05:47:45;97463.84;;;2.40;83.99
39555;BME280;25231;48.746;9.234;2023-04-03T05:50:12;97461.31;;;2.64;83.65
39555;BME280;25231;48.746;9.234;2023-04-03T05:52:40;97468.75;;;2.59;83.10
39555;BME280;25231;48.746;9.234;2023-04-03T05:55:07;97476.16;;;2.54;84.66
39555;BME280;25231;48.746;9.234;2023-04-03T05:57:33;97480.72;;;2.76;83.13
39555;BME280;25231;48.746;9.234;2023-04-03T05:59:58;97478.78;;;2.70;84.10
39555;BME280;25231;48.746;9.234;2023-04-03T06:02:24;97479.59;;;2.71;84.00
39555;BME280;25231;48.746;9.234;2023-04-03T06:04:51;97482.34;;;2.69;85.57
39555;BME280;25231;48.746;9.234;2023-04-03T06:07:19;97478.28;;;2.59;85.36
39555;BME280;25231;48.746;9.234;2023-04-03T06:09:48;97476.81;;;2.48;84.59
39555;BME280;25231;48.746;9.234;2023-04-03T06:12:13;97477.72;;;2.31;85.96
39555;BME280;25231;48.746;9.234;2023-04-03T06:14:40;97481.09;;;2.23;87.10
39555;BME280;25231;48.746;9.234;2023-04-03T06:17:06;97477.75;;;2.39;87.52
39555;BME280;25231;48.746;9.234;2023-04-03T06:19:32;97476.97;;;2.46;87.19
39555;BME280;25231;48.746;9.234;2023-04-03T06:21:57;97486.53;;;2.62;86.15
39555;BME280;25231;48.746;9.234;2023-04-03T06:24:23;97489.59;;;2.49;87.26
39555;BME280;25231;48.746;9.234;2023-04-03T06:26:50;97491.69;;;2.62;86.16
39555;BME280;25231;48.746;9.234;2023-04-03T06:29:18;97497.84;;;2.53;85.98
39555;BME280;25231;48.746;9.234;2023-04-03T06:31:43;97493.63;;;2.44;86.59
39555;BME280;25231;48.746;9.234;2023-04-03T06:34:10;97487.13;;;2.40;87.89
39555;BME280;25231;48.746;9.234;2023-04-03T06:36:36;97492.63;;;2.37;87.54
39555;BME280;25231;48.746;9.234;2023-04-03T06:39:02;97491.03;;;2.52;86.75
39555;BME280;25231;48.746;9.234;2023-04-03T06:41:28;97494.16;;;2.72;87.60
39555;BME280;25231;48.746;9.234;2023-04-03T06:43:53;97497.56;;;2.88;85.38
39555;BME280;25231;48.746;9.234;2023-04-03T06:46:22;97494.94;;;2.56;85.75
39555;BME280;25231;48.746;9.234;2023-04-03T06:48:48;97491.38;;;2.57;86.34
39555;BME280;25231;48.746;9.234;2023-04-03T06:51:22;97497.84;;;2.53;86.24
39555;BME280;25231;48.746;9.234;2023-04-03T06:53:50;97493.81;;;2.50;87.26
39555;BME280;25231;48.746;9.234;2023-04-03T06:56:16;97493.28;;;2.47;87.77
39555;BME280;25231;48.746;9.234;2023-04-03T06:58:42;97498.47;;;2.39;88.39
39555;BME280;25231;48.746;9.234;2023-04-03T07:01:09;97494.75;;;2.49;87.29
39555;BME280;25231;48.746;9.234;2023-04-03T07:03:35;97503.34;;;2.50;87.45
39555;BME280;25231;48.746;9.234;2023-04-03T07:06:01;97500.78;;;2.66;87.13
39555;BME280;25231;48.746;9.234;2023-04-03T07:08:27;97509.31;;;2.50;87.94
39555;BME280;25231;48.746;9.234;2023-04-03T07:10:52;97500.91;;;2.48;88.67
39555;BME280;25231;48.746;9.234;2023-04-03T07:13:17;97511.63;;;2.70;87.21
39555;BME280;25231;48.746;9.234;2023-04-03T07:15:43;97516.31;;;2.74;86.22
39555;BME280;25231;48.746;9.234;2023-04-03T07:18:09;97511.16;;;2.90;86.33
39555;BME280;25231;48.746;9.234;2023-04-03T07:20:34;97523.31;;;3.14;85.65
39555;BME280;25231;48.746;9.234;2023-04-03T07:22:59;97505.50;;;2.95;84.78
39555;BME280;25231;48.746;9.234;2023-04-03T07:25:27;97513.94;;;3.05;84.65
39555;BME280;25231;48.746;9.234;2023-04-03T07:27:52;97518.28;;;3.21;85.58
39555;BME280;25231;48.746;9.234;2023-04-03T07:30:19;97517.31;;;3.06;86.12
39555;BME280;25231;48.746;9.234;2023-04-03T07:32:45;97511.81;;;3.33;86.14
39555;BME280;25231;48.746;9.234;2023-04-03T07:35:11;97518.13;;;3.14;85.87
39555;BME280;25231;48.746;9.234;2023-04-03T07:37:36;97519.09;;;2.89;87.04
39555;BME280;25231;48.746;9.234;2023-04-03T07:40:02;97518.59;;;2.85;86.63
39555;BME280;25231;48.746;9.234;2023-04-03T07:42:28;97535.13;;;3.25;84.75
39555;BME280;25231;48.746;9.234;2023-04-03T07:44:54;97524.44;;;3.36;85.31
39555;BME280;25231;48.746;9.234;2023-04-03T07:47:19;97533.69;;;3.39;84.88
39555;BME280;25231;48.746;9.234;2023-04-03T07:49:45;97529.47;;;4.17;87.95
39555;BME280;25231;48.746;9.234;2023-04-03T07:52:11;97527.47;;;3.72;86.97
39555;BME280;25231;48.746;9.234;2023-04-03T07:54:36;97531.47;;;3.99;84.57
39555;BME280;25231;48.746;9.234;2023-04-03T07:57:02;97524.69;;;3.82;84.79
39555;BME280;25231;48.746;9.234;2023-04-03T07:59:28;97529.88;;;3.82;85.24
39555;BME280;25231;48.746;9.234;2023-04-03T08:01:53;97538.88;;;4.10;83.21
39555;BME280;25231;48.746;9.234;2023-04-03T08:04:18;97538.78;;;3.87;82.88
39555;BME280;25231;48.746;9.234;2023-04-03T08:06:44;97563.59;;;3.57;84.04
39555;BME280;25231;48.746;9.234;2023-04-03T08:09:11;97545.00;;;3.54;85.18
39555;BME280;25231;48.746;9.234;2023-04-03T08:11:39;97537.66;;;3.73;84.69
39555;BME280;25231;48.746;9.234;2023-04-03T08:14:04;97548.66;;;4.00;83.81
39555;BME280;25231;48.746;9.234;2023-04-03T08:16:30;97538.94;;;3.94;84.72
39555;BME280;25231;48.746;9.234;2023-04-03T08:18:56;97537.31;;;4.01;82.56
39555;BME280;25231;48.746;9.234;2023-04-03T08:21:21;97556.16;;;3.79;82.22
39555;BME280;25231;48.746;9.234;2023-04-03T08:23:49;97543.03;;;3.72;83.16
39555;BME280;25231;48.746;9.234;2023-04-03T08:26:19;97552.94;;;3.60;84.10
39555;BME280;25231;48.746;9.234;2023-04-03T08:28:47;97545.66;;;3.48;84.55
39555;BME280;25231;48.746;9.234;2023-04-03T08:31:15;97545.47;;;3.65;83.92
39555;BME280;25231;48.746;9.234;2023-04-03T08:33:42;97542.56;;;3.60;84.43
39555;BME280;25231;48.746;9.234;2023-04-03T08:36:34;97548.50;;;3.93;83.61
39555;BME280;25231;48.746;9.234;2023-04-03T08:38:59;97553.31;;;4.04;82.68
39555;BME280;25231;48.746;9.234;2023-04-03T08:41:31;97559.81;;;4.00;82.28
39555;BME280;25231;48.746;9.234;2023-04-03T08:52:43;97541.56;;;4.25;78.03
39555;BME280;25231;48.746;9.234;2023-04-03T08:55:21;97554.84;;;4.30;79.17
39555;BME280;25231;48.746;9.234;2023-04-03T08:57:48;97565.53;;;4.35;77.35
39555;BME280;25231;48.746;9.234;2023-04-03T09:00:19;97555.50;;;4.32;77.34
39555;BME280;25231;48.746;9.234;2023-04-03T09:03:04;97567.53;;;4.94;75.65
39555;BME280;25231;48.746;9.234;2023-04-03T09:05:41;97557.56;;;4.75;75.14
39555;BME280;25231;48.746;9.234;2023-04-03T09:10:44;97551.25;;;4.78;77.91
39555;BME280;25231;48.746;9.234;2023-04-03T09:15:44;97556.81;;;4.67;77.26
39555;BME280;25231;48.746;9.234;2023-04-03T09:18:16;97553.53;;;4.73;77.33
39555;BME280;25231;48.746;9.234;2023-04-03T09:23:24;97546.78;;;4.86;76.25
39555;BME280;25231;48.746;9.234;2023-04-03T09:25:58;97556.25;;;4.79;76.59
39555;BME280;25231;48.746;9.234;2023-04-03T09:28:27;97547.19;;;4.75;76.55
39555;BME280;25231;48.746;9.234;2023-04-03T09:30:54;97561.06;;;4.59;77.08
39555;BME280;25231;48.746;9.234;2023-04-03T09:33:20;97557.63;;;4.67;77.02
39555;BME280;25231;48.746;9.234;2023-04-03T09:35:47;97557.19;;;4.86;76.74
39555;BME280;25231;48.746;9.234;2023-04-03T09:40:40;97551.63;;;4.67;76.28
39555;BME280;25231;48.746;9.234;2023-04-03T09:43:26;97549.41;;;4.55;77.47
39555;BME280;25231;48.746;9.234;2023-04-03T09:45:53;97554.63;;;4.47;77.77
39555;BME280;25231;48.746;9.234;2023-04-03T09:48:22;97559.56;;;4.65;76.29
39555;BME280;25231;48.746;9.234;2023-04-03T09:56:00;97562.47;;;4.31;77.11
39555;BME280;25231;48.746;9.234;2023-04-03T10:00:56;97554.91;;;4.52;76.90
39555;BME280;25231;48.746;9.234;2023-04-03T10:03:31;97556.63;;;4.37;75.12
39555;BME280;25231;48.746;9.234;2023-04-03T10:05:57;97558.44;;;4.29;76.79
39555;BME280;25231;48.746;9.234;2023-04-03T10:08:34;97562.81;;;4.28;74.91
39555;BME280;25231;48.746;9.234;2023-04-03T10:11:07;97565.22;;;4.30;75.08
39555;BME280;25231;48.746;9.234;2023-04-03T10:13:33;97553.38;;;4.35;73.38
39555;BME280;25231;48.746;9.234;2023-04-03T10:16:09;97555.84;;;4.29;72.39
39555;BME280;25231;48.746;9.234;2023-04-03T10:18:42;97548.91;;;4.52;72.26
39555;BME280;25231;48.746;9.234;2023-04-03T10:21:50;97545.69;;;4.50;72.43
39555;BME280;25231;48.746;9.234;2023-04-03T10:24:27;97539.94;;;4.63;70.95
39555;BME280;25231;48.746;9.234;2023-04-03T10:27:02;97540.59;;;4.65;71.52
39555;BME280;25231;48.746;9.234;2023-04-03T10:29:39;97536.28;;;4.80;69.55
39555;BME280;25231;48.746;9.234;2023-04-03T10:32:28;97540.06;;;4.69;70.56
39555;BME280;25231;48.746;9.234;2023-04-03T10:35:16;97541.94;;;4.83;69.62
39555;BME280;25231;48.746;9.234;2023-04-03T10:40:34;97545.34;;;4.53;69.44
39555;BME280;25231;48.746;9.234;2023-04-03T10:43:14;97544.00;;;4.65;70.37
39555;BME280;25231;48.746;9.234;2023-04-03T10:54:25;97536.59;;;4.54;70.51
39555;BME280;25231;48.746;9.234;2023-04-03T10:56:57;97558.31;;;4.61;69.69
39555;BME280;25231;48.746;9.234;2023-04-03T10:59:33;97541.00;;;4.76;69.58
39555;BME280;25231;48.746;9.234;2023-04-03T11:02:06;97543.31;;;4.71;68.70
39555;BME280;25231;48.746;9.234;2023-04-03T11:04:36;97541.41;;;4.65;67.74
39555;BME280;25231;48.746;9.234;2023-04-03T11:07:18;97542.84;;;4.68;67.40
39555;BME280;25231;48.746;9.234;2023-04-03T11:09:52;97538.88;;;5.02;67.29
39555;BME280;25231;48.746;9.234;2023-04-03T11:12:24;97547.66;;;5.01;67.15
39555;BME280;25231;48.746;9.234;2023-04-03T11:14:52;97539.63;;;4.66;67.55
39555;BME280;25231;48.746;9.234;2023-04-03T11:22:49;97535.00;;;4.76;67.80
39555;BME280;25231;48.746;9.234;2023-04-03T11:25:24;97535.47;;;4.79;66.81
39555;BME280;25231;48.746;9.234;2023-04-03T11:27:58;97548.06;;;4.68;65.78
39555;BME280;25231;48.746;9.234;2023-04-03T11:35:49;97528.53;;;4.72;60.77
39555;BME280;25231;48.746;9.234;2023-04-03T11:38:22;97531.75;;;4.51;59.80
39555;BME280;25231;48.746;9.234;2023-04-03T11:40:49;97528.88;;;4.69;58.69
39555;BME280;25231;48.746;9.234;2023-04-03T11:43:27;97523.47;;;4.78;58.53
39555;BME280;25231;48.746;9.234;2023-04-03T11:46:03;97520.66;;;4.88;58.33
39555;BME280;25231;48.746;9.234;2023-04-03T11:51:42;97521.19;;;5.06;58.48
39555;BME280;25231;48.746;9.234;2023-04-03T11:53:43;97516.97;;;5.05;59.26
39555;BME280;25231;48.746;9.234;2023-04-03T12:01:47;97499.06;;;4.87;59.46
39555;BME280;25231;48.746;9.234;2023-04-03T12:04:14;97510.50;;;4.78;59.93
39555;BME280;25231;48.746;9.234;2023-04-03T12:11:51;97509.88;;;4.68;59.57
39555;BME280;25231;48.746;9.234;2023-04-03T12:14:17;97512.44;;;4.76;60.72
39555;BME280;25231;48.746;9.234;2023-04-03T12:16:45;97505.31;;;4.78;62.51
39555;BME280;25231;48.746;9.234;2023-04-03T12:24:23;97495.78;;;4.71;59.55
39555;BME280;25231;48.746;9.234;2023-04-03T12:27:13;97491.00;;;4.82;59.77
39555;BME280;25231;48.746;9.234;2023-04-03T12:30:22;97496.31;;;4.89;59.45
39555;BME280;25231;48.746;9.234;2023-04-03T12:33:04;97495.25;;;4.75;60.90
39555;BME280;25231;48.746;9.234;2023-04-03T12:35:43;97489.84;;;4.62;60.71
39555;BME280;25231;48.746;9.234;2023-04-03T12:46:47;97493.69;;;5.12;59.41
39555;BME280;25231;48.746;9.234;2023-04-03T12:49:41;97493.44;;;5.59;57.90
39555;BME280;25231;48.746;9.234;2023-04-03T12:52:41;97483.50;;;5.77;56.79
39555;BME280;25231;48.746;9.234;2023-04-03T12:55:17;97496.50;;;5.62;56.22
39555;BME280;25231;48.746;9.234;2023-04-03T12:57:43;97483.31;;;5.64;55.56
39555;BME280;25231;48.746;9.234;2023-04-03T13:00:42;97493.00;;;5.55;55.87
39555;BME280;25231;48.746;9.234;2023-04-03T13:03:22;97485.41;;;5.68;54.49
39555;BME280;25231;48.746;9.234;2023-04-03T13:05:47;97487.34;;;5.81;54.31
39555;BME280;25231;48.746;9.234;2023-04-03T13:08:13;97473.81;;;5.71;54.92
39555;BME280;25231;48.746;9.234;2023-04-03T13:10:54;97480.00;;;5.55;53.52
39555;BME280;25231;48.746;9.234;2023-04-03T13:13:22;97477.50;;;5.62;54.69
39555;BME280;25231;48.746;9.234;2023-04-03T13:15:48;97467.72;;;6.08;56.40
39555;BME280;25231;48.746;9.234;2023-04-03T13:20:58;97479.19;;;5.55;59.09
39555;BME280;25231;48.746;9.234;2023-04-03T13:23:27;97473.00;;;5.70;58.74
39555;BME280;25231;48.746;9.234;2023-04-03T13:25:53;97469.78;;;5.83;59.17
39555;BME280;25231;48.746;9.234;2023-04-03T13:28:22;97473.97;;;5.69;57.11
39555;BME280;25231;48.746;9.234;2023-04-03T13:31:29;97472.19;;;5.70;57.84
39555;BME280;25231;48.746;9.234;2023-04-03T13:34:10;97462.44;;;5.57;56.94
39555;BME280;25231;48.746;9.234;2023-04-03T13:36:40;97465.81;;;5.58;58.10
39555;BME280;25231;48.746;9.234;2023-04-03T13:39:22;97463.97;;;5.96;56.92
39555;BME280;25231;48.746;9.234;2023-04-03T13:41:50;97462.25;;;6.03;55.05
39555;BME280;25231;48.746;9.234;2023-04-03T13:46:56;97459.84;;;6.01;56.21
39555;BME280;25231;48.746;9.234;2023-04-03T13:49:39;97465.06;;;6.01;55.16
39555;BME280;25231;48.746;9.234;2023-04-03T13:52:28;97461.91;;;5.91;55.69
39555;BME280;25231;48.746;9.234;2023-04-03T13:55:00;97462.53;;;5.93;54.78
39555;BME280;25231;48.746;9.234;2023-04-03T13:57:27;97460.00;;;5.85;54.32
39555;BME280;25231;48.746;9.234;2023-04-03T13:59:53;97459.94;;;5.93;52.98
39555;BME280;25231;48.746;9.234;2023-04-03T14:02:33;97454.09;;;5.91;52.93
39555;BME280;25231;48.746;9.234;2023-04-03T14:05:00;97467.19;;;6.12;53.02
39555;BME280;25231;48.746;9.234;2023-04-03T14:07:28;97467.19;;;5.83;52.93
39555;BME280;25231;48.746;9.234;2023-04-03T14:09:55;97456.25;;;6.02;54.17
39555;BME280;25231;48.746;9.234;2023-04-03T14:14:45;97465.66;;;5.74;54.04
39555;BME280;25231;48.746;9.234;2023-04-03T14:17:20;97461.41;;;5.58;54.17
39555;BME280;25231;48.746;9.234;2023-04-03T14:19:48;97460.59;;;5.43;54.34
39555;BME280;25231;48.746;9.234;2023-04-03T14:22:34;97461.69;;;5.63;54.69
39555;BME280;25231;48.746;9.234;2023-04-03T14:25:00;97451.88;;;5.36;53.77
39555;BME280;25231;48.746;9.234;2023-04-03T14:27:28;97452.09;;;5.34;54.34
39555;BME280;25231;48.746;9.234;2023-04-03T14:29:57;97446.69;;;5.21;53.43
39555;BME280;25231;48.746;9.234;2023-04-03T14:32:24;97447.06;;;5.48;53.31
39555;BME280;25231;48.746;9.234;2023-04-03T14:34:50;97440.97;;;5.70;52.81
39555;BME280;25231;48.746;9.234;2023-04-03T14:37:19;97441.81;;;5.85;51.90
39555;BME280;25231;48.746;9.234;2023-04-03T14:39:46;97454.44;;;6.17;50.93
39555;BME280;25231;48.746;9.234;2023-04-03T14:42:21;97444.94;;;6.10;50.01
39555;BME280;25231;48.746;9.234;2023-04-03T14:44:47;97448.00;;;5.99;50.30
39555;BME280;25231;48.746;9.234;2023-04-03T14:47:14;97439.50;;;5.90;52.18
39555;BME280;25231;48.746;9.234;2023-04-03T14:49:41;97447.34;;;5.53;53.90